createdAt,value
2019-02-08T00:01:48.425Z,24.37
2019-02-08T00:04:18.068Z,28.98
2019-02-08T00:06:47.747Z,26.27
2019-02-08T00:09:17.602Z,23.70
2019-02-08T00:11:47.574Z,25.00
2019-02-08T00:14:17.250Z,24.37
2019-02-08T00:16:46.921Z,24.27
2019-02-08T00:19:16.569Z,24.70
2019-02-08T00:21:46.241Z,23.50
2019-02-08T00:24:15.885Z,21.97
2019-02-08T00:26:45.552Z,22.07
2019-02-08T00:29:15.209Z,23.00
2019-02-08T00:31:44.899Z,22.52
2019-02-08T00:34:14.643Z,20.88
2019-02-08T00:36:44.313Z,22.13
2019-02-08T00:39:13.943Z,22.80
2019-02-08T00:41:43.631Z,21.23
2019-02-08T00:44:13.261Z,21.12
2019-02-08T00:46:42.910Z,21.55
2019-02-08T00:49:12.609Z,21.42
2019-02-08T00:51:42.315Z,23.47
2019-02-08T00:54:12.012Z,22.10
2019-02-08T00:56:41.772Z,22.48
2019-02-08T00:59:11.725Z,22.02
2019-02-08T01:01:41.425Z,21.75
2019-02-08T01:04:11.100Z,22.45
2019-02-08T01:06:40.776Z,25.27
2019-02-08T01:09:10.706Z,25.97
2019-02-08T01:11:40.485Z,23.85
2019-02-08T01:14:10.685Z,24.55
2019-02-08T01:16:40.390Z,26.00
2019-02-08T01:19:10.085Z,25.12
2019-02-08T01:21:39.779Z,22.73
2019-02-08T01:24:09.442Z,23.55
2019-02-08T01:26:39.311Z,23.60
2019-02-08T01:29:08.948Z,24.40
2019-02-08T01:31:38.646Z,23.32
2019-02-08T01:34:08.559Z,26.68
2019-02-08T01:36:38.272Z,25.85
2019-02-08T01:39:09.093Z,24.87
2019-02-08T01:41:38.814Z,24.92
2019-02-08T01:44:08.574Z,25.80
2019-02-08T01:46:38.303Z,26.17
2019-02-08T01:49:08.076Z,26.35
2019-02-08T01:51:37.769Z,27.67
2019-02-08T01:54:07.462Z,23.57
2019-02-08T01:56:37.206Z,24.12
2019-02-08T01:59:06.979Z,25.75
2019-02-08T02:01:36.699Z,21.23
2019-02-08T02:04:06.518Z,23.87
2019-02-08T02:06:36.196Z,24.75
2019-02-08T02:09:08.899Z,24.15
2019-02-08T02:11:38.674Z,21.80
2019-02-08T02:14:08.452Z,21.57
2019-02-08T02:16:38.131Z,22.27
2019-02-08T02:19:08.009Z,23.30
2019-02-08T02:21:37.717Z,24.82
2019-02-08T02:24:07.402Z,23.42
2019-02-08T02:26:37.101Z,24.67
2019-02-08T02:29:06.793Z,24.77
2019-02-08T02:31:36.492Z,25.85
2019-02-08T02:34:06.283Z,22.87
2019-02-08T02:36:35.975Z,25.12
2019-02-08T02:39:09.391Z,25.52
2019-02-08T02:41:39.087Z,23.80
2019-02-08T02:44:08.774Z,24.92
2019-02-08T02:46:38.473Z,25.32
2019-02-08T02:49:08.180Z,26.82
2019-02-08T02:51:37.916Z,26.77
2019-02-08T02:54:07.705Z,25.55
2019-02-08T02:56:37.436Z,26.23
2019-02-08T02:59:07.407Z,27.25
2019-02-08T03:01:37.214Z,25.68
2019-02-08T03:04:06.967Z,25.70
2019-02-08T03:06:36.678Z,25.65
2019-02-08T03:09:09.625Z,25.43
2019-02-08T03:11:39.280Z,27.22
2019-02-08T03:14:09.063Z,24.27
2019-02-08T03:16:38.761Z,28.73
2019-02-08T03:19:08.483Z,25.27
2019-02-08T03:21:38.136Z,27.50
2019-02-08T03:24:12.901Z,27.30
2019-02-08T03:26:39.184Z,25.00
2019-02-08T03:29:08.932Z,23.02
2019-02-08T03:31:38.562Z,24.37
2019-02-08T03:34:08.300Z,24.43
2019-02-08T03:36:37.965Z,23.45
2019-02-08T03:39:09.458Z,25.30
2019-02-08T03:41:39.120Z,23.90
2019-02-08T03:44:08.962Z,23.10
2019-02-08T03:46:38.666Z,22.45
2019-02-08T03:49:08.501Z,24.07
2019-02-08T03:51:38.203Z,23.27
2019-02-08T03:54:07.957Z,21.73
2019-02-08T03:56:37.707Z,22.60
2019-02-08T03:59:07.594Z,23.65
2019-02-08T04:01:37.305Z,21.77
2019-02-08T04:04:15.707Z,23.95
2019-02-08T04:06:45.594Z,21.25
2019-02-08T04:09:15.393Z,22.87
2019-02-08T04:11:45.170Z,23.95
2019-02-08T04:14:14.870Z,23.87
2019-02-08T04:16:44.531Z,22.27
2019-02-08T04:19:14.245Z,21.68
2019-02-08T04:21:43.918Z,21.45
2019-02-08T04:24:13.965Z,24.60
2019-02-08T04:26:43.665Z,20.40
2019-02-08T04:29:13.337Z,21.73
2019-02-08T04:31:43.039Z,24.12
2019-02-08T04:34:12.708Z,24.23
2019-02-08T04:36:42.392Z,23.87
2019-02-08T04:39:12.105Z,24.80
2019-02-08T04:41:41.810Z,24.20
2019-02-08T04:44:11.498Z,23.60
2019-02-08T04:46:41.204Z,24.75
2019-02-08T04:49:10.994Z,23.40
2019-02-08T04:51:41.616Z,25.08
2019-02-08T04:54:11.304Z,23.57
2019-02-08T04:56:41.071Z,23.73
2019-02-08T04:59:10.733Z,26.27
2019-02-08T05:01:40.532Z,26.02
2019-02-08T05:04:10.212Z,23.52
2019-02-08T05:06:39.975Z,21.27
2019-02-08T05:09:09.863Z,23.42
2019-02-08T05:11:39.577Z,22.55
2019-02-08T05:14:09.366Z,22.85
2019-02-08T05:16:39.046Z,22.35
2019-02-08T05:19:08.778Z,22.07
2019-02-08T05:21:38.486Z,21.73
2019-02-08T05:24:08.199Z,22.48
2019-02-08T05:26:37.924Z,20.88
2019-02-08T05:29:07.599Z,19.73
2019-02-08T05:31:37.384Z,21.35
2019-02-08T05:34:07.285Z,20.65
2019-02-08T05:36:37.058Z,23.12
2019-02-08T05:39:12.310Z,22.05
2019-02-08T05:41:41.983Z,22.62
2019-02-08T05:44:11.599Z,23.42
2019-02-08T05:46:41.311Z,23.57
2019-02-08T05:49:10.983Z,21.80
2019-02-08T05:51:40.702Z,21.35
2019-02-08T05:54:10.340Z,20.50
2019-02-08T05:56:40.082Z,18.65
2019-02-08T05:59:09.956Z,20.32
2019-02-08T06:01:39.645Z,19.57
2019-02-08T06:04:09.343Z,17.37
2019-02-08T06:06:39.008Z,16.40
2019-02-08T06:09:10.470Z,16.95
2019-02-08T06:11:40.093Z,17.30
2019-02-08T06:14:10.032Z,19.65
2019-02-08T06:16:39.693Z,16.50
2019-02-08T06:19:09.385Z,18.00
2019-02-08T06:21:39.081Z,16.65
2019-02-08T06:24:08.739Z,17.95
2019-02-08T06:26:38.440Z,17.23
2019-02-08T06:29:08.101Z,18.70
2019-02-08T06:31:37.753Z,16.55
2019-02-08T06:34:07.407Z,16.60
2019-02-08T06:36:37.147Z,17.32
2019-02-08T06:39:09.623Z,18.35
2019-02-08T06:41:39.227Z,19.45
2019-02-08T06:44:08.981Z,18.00
2019-02-08T06:46:38.663Z,17.77
2019-02-08T06:49:08.534Z,17.60
2019-02-08T06:51:38.224Z,19.05
2019-02-08T06:54:07.983Z,15.20
2019-02-08T06:56:54.887Z,18.20
2019-02-08T06:59:31.680Z,15.93
2019-02-08T07:02:23.089Z,15.23
2019-02-08T07:05:15.123Z,15.93
2019-02-08T07:07:57.338Z,18.30
2019-02-08T07:10:54.948Z,18.02
2019-02-08T07:13:52.419Z,17.57
2019-02-08T07:16:52.870Z,17.17
2019-02-08T07:19:53.362Z,15.70
2019-02-08T07:22:44.830Z,16.87
2019-02-08T07:25:39.381Z,16.50
2019-02-08T07:28:36.718Z,16.50
2019-02-08T07:31:31.297Z,17.07
2019-02-08T07:34:26.067Z,16.95
2019-02-08T07:37:23.731Z,16.75
2019-02-08T07:40:12.728Z,17.30
2019-02-08T07:43:01.460Z,15.55
2019-02-08T07:45:43.090Z,16.82
2019-02-08T07:48:22.613Z,15.13
2019-02-08T07:51:01.025Z,13.68
2019-02-08T07:53:46.123Z,15.98
2019-02-08T07:56:38.497Z,15.43
2019-02-08T07:59:30.029Z,12.75
2019-02-08T08:02:15.082Z,14.63
2019-02-08T08:05:21.961Z,13.75
2019-02-08T08:08:16.497Z,13.13
2019-02-08T08:10:52.021Z,13.88
2019-02-08T08:13:40.845Z,15.28
2019-02-08T08:16:29.739Z,15.03
2019-02-08T08:19:19.498Z,13.08
2019-02-08T08:22:05.008Z,14.45
2019-02-08T08:24:50.663Z,12.20
2019-02-08T08:27:39.621Z,11.57
2019-02-08T08:30:29.763Z,12.18
2019-02-08T08:33:13.639Z,11.45
2019-02-08T08:36:45.424Z,10.65
2019-02-08T08:39:54.201Z,11.22
2019-02-08T08:42:43.477Z,11.90
2019-02-08T08:45:50.608Z,13.05
2019-02-08T08:48:56.400Z,11.83
2019-02-08T08:51:53.612Z,11.00
2019-02-08T08:55:02.747Z,11.00
2019-02-08T08:57:55.759Z,10.85
2019-02-08T09:01:30.436Z,10.65
2019-02-08T09:04:36.520Z,10.90
2019-02-08T09:07:36.509Z,10.98
2019-02-08T09:10:59.090Z,9.85
2019-02-08T09:14:16.990Z,9.05
2019-02-08T09:17:35.637Z,9.25
2019-02-08T09:20:45.139Z,10.38
2019-02-08T09:24:04.934Z,9.40
2019-02-08T09:27:13.143Z,9.05
2019-02-08T09:30:25.558Z,9.50
2019-02-08T09:33:40.944Z,9.05
2019-02-08T09:37:09.423Z,8.10
2019-02-08T09:40:14.579Z,9.43
2019-02-08T09:43:27.253Z,8.30
2019-02-08T09:46:52.048Z,9.85
2019-02-08T09:50:20.508Z,5.92
2019-02-08T09:53:51.646Z,7.35
2019-02-08T09:56:56.654Z,7.58
2019-02-08T10:00:05.639Z,8.68
2019-02-08T10:03:17.478Z,7.80
2019-02-08T10:06:25.370Z,6.58
2019-02-08T10:09:23.950Z,6.42
2019-02-08T10:12:30.467Z,11.38
2019-02-08T10:15:55.796Z,5.85
2019-02-08T10:18:59.351Z,6.53
2019-02-08T10:22:16.314Z,6.65
2019-02-08T10:25:24.208Z,5.78
2019-02-08T10:28:30.631Z,6.75
2019-02-08T10:31:47.107Z,6.83
2019-02-08T10:34:57.790Z,5.87
2019-02-08T10:38:13.297Z,6.15
2019-02-08T10:41:34.287Z,6.15
2019-02-08T10:44:52.530Z,5.92
2019-02-08T10:48:01.461Z,5.97
2019-02-08T10:51:12.370Z,5.55
2019-02-08T10:54:17.361Z,5.00
2019-02-08T10:57:38.633Z,6.30
2019-02-08T11:00:58.334Z,5.70
2019-02-08T11:04:18.264Z,5.72
2019-02-08T11:07:27.987Z,5.75
2019-02-08T11:10:40.741Z,5.42
2019-02-08T11:13:58.440Z,6.15
2019-02-08T11:16:59.295Z,6.05
2019-02-08T11:19:27.217Z,5.35
2019-02-08T11:21:57.002Z,5.67
2019-02-08T11:24:27.813Z,5.80
2019-02-08T11:26:59.660Z,6.87
2019-02-08T11:29:29.557Z,5.15
2019-02-08T11:31:59.323Z,4.85
2019-02-08T11:34:29.037Z,7.40
2019-02-08T11:36:58.911Z,6.33
2019-02-08T11:39:28.641Z,5.12
2019-02-08T11:41:58.424Z,6.78
2019-02-08T11:44:28.098Z,5.92
2019-02-08T11:46:57.776Z,6.00
2019-02-08T11:49:27.511Z,5.97
2019-02-08T11:51:57.182Z,5.50
2019-02-08T11:54:26.853Z,4.33
2019-02-08T11:56:56.714Z,5.28
2019-02-08T11:59:26.407Z,5.10
2019-02-08T12:01:56.166Z,4.75
2019-02-08T12:04:25.820Z,5.05
2019-02-08T12:06:55.479Z,5.40
2019-02-08T12:09:25.169Z,5.37
2019-02-08T12:11:54.927Z,3.75
2019-02-08T12:14:24.697Z,4.47
2019-02-08T12:16:54.428Z,5.55
2019-02-08T12:19:24.031Z,5.22
2019-02-08T12:21:53.714Z,5.65
2019-02-08T12:24:23.380Z,5.10
2019-02-08T12:26:53.106Z,6.10
2019-02-08T12:29:22.799Z,6.25
2019-02-08T12:31:52.469Z,6.05
2019-02-08T12:34:22.157Z,4.92
2019-02-08T12:36:51.827Z,5.37
2019-02-08T12:39:21.575Z,5.15
2019-02-08T12:41:51.295Z,4.67
2019-02-08T12:44:20.961Z,4.50
2019-02-08T12:46:50.689Z,5.45
2019-02-08T12:49:20.444Z,5.00
2019-02-08T12:51:50.117Z,5.47
2019-02-08T12:54:21.351Z,4.80
2019-02-08T12:56:51.144Z,4.62
2019-02-08T12:59:21.112Z,4.08
2019-02-08T13:01:50.745Z,5.47
2019-02-08T13:04:20.347Z,4.92
2019-02-08T13:06:50.030Z,4.10
2019-02-08T13:09:19.707Z,4.85
2019-02-08T13:11:49.433Z,4.53
2019-02-08T13:14:19.108Z,5.78
2019-02-08T13:16:48.805Z,5.22
2019-02-08T13:19:18.542Z,5.85
2019-02-08T13:21:48.221Z,4.70
2019-02-08T13:24:17.937Z,5.53
2019-02-08T13:26:52.841Z,5.00
2019-02-08T13:29:19.014Z,4.35
2019-02-08T13:31:48.711Z,4.85
2019-02-08T13:34:18.394Z,5.97
2019-02-08T13:36:48.105Z,5.00
2019-02-08T13:39:17.838Z,6.17
2019-02-08T13:41:47.552Z,5.67
2019-02-08T13:44:17.248Z,4.75
2019-02-08T13:46:46.910Z,6.40
2019-02-08T13:49:16.536Z,6.65
2019-02-08T13:51:46.192Z,4.95
2019-02-08T13:54:15.916Z,5.80
2019-02-08T13:56:45.581Z,5.90
2019-02-08T13:59:15.325Z,5.85
2019-02-08T14:01:45.002Z,5.55
2019-02-08T14:04:14.643Z,5.75
2019-02-08T14:06:44.364Z,6.15
2019-02-08T14:09:14.195Z,5.83
2019-02-08T14:11:43.883Z,6.35
2019-02-08T14:14:13.626Z,6.90
2019-02-08T14:16:43.301Z,5.90
2019-02-08T14:19:13.056Z,6.55
2019-02-08T14:21:42.735Z,5.05
2019-02-08T14:24:12.445Z,4.28
2019-02-08T14:26:42.185Z,4.60
2019-02-08T14:29:11.847Z,4.03
2019-02-08T14:31:44.886Z,5.15
2019-02-08T14:34:13.032Z,4.53
2019-02-08T14:36:42.762Z,4.80
2019-02-08T14:39:12.449Z,4.72
2019-02-08T14:41:42.192Z,4.70
2019-02-08T14:44:11.854Z,4.87
2019-02-08T14:46:41.588Z,4.58
2019-02-08T14:49:11.374Z,4.70
2019-02-08T14:51:41.049Z,4.70
2019-02-08T14:54:10.837Z,4.10
2019-02-08T14:56:40.555Z,4.55
2019-02-08T14:59:10.428Z,3.92
2019-02-08T15:01:40.108Z,4.95
2019-02-08T15:04:09.788Z,4.70
2019-02-08T15:06:39.843Z,5.30
2019-02-08T15:09:13.158Z,4.80
2019-02-08T15:11:42.862Z,5.47
2019-02-08T15:14:12.586Z,5.03
2019-02-08T15:16:42.296Z,4.97
2019-02-08T15:19:12.124Z,5.10
2019-02-08T15:21:41.826Z,4.12
2019-02-08T15:24:11.499Z,4.50
2019-02-08T15:26:42.756Z,3.72
2019-02-08T15:29:12.556Z,4.70
2019-02-08T15:31:42.240Z,4.53
2019-02-08T15:34:11.941Z,5.35
2019-02-08T15:36:49.240Z,5.03
2019-02-08T15:39:16.051Z,4.53
2019-02-08T15:41:45.795Z,4.00
2019-02-08T15:44:15.500Z,3.90
2019-02-08T15:46:45.233Z,4.80
2019-02-08T15:49:21.062Z,5.28
2019-02-08T15:51:50.698Z,4.67
2019-02-08T15:54:20.339Z,5.03
2019-02-08T15:56:53.221Z,3.45
2019-02-08T15:59:22.874Z,3.87
2019-02-08T16:01:52.572Z,6.80
2019-02-08T16:04:22.358Z,5.70
2019-02-08T16:06:52.112Z,4.40
2019-02-08T16:09:21.771Z,6.30
2019-02-08T16:11:51.389Z,4.20
2019-02-08T16:14:21.096Z,3.95
2019-02-08T16:16:50.800Z,4.17
2019-02-08T16:19:20.567Z,3.77
2019-02-08T16:21:50.313Z,3.60
2019-02-08T16:24:20.203Z,3.02
2019-02-08T16:26:49.864Z,3.20
2019-02-08T16:29:19.666Z,3.30
2019-02-08T16:31:49.398Z,3.65
2019-02-08T16:34:19.811Z,3.30
2019-02-08T16:36:49.662Z,4.00
2019-02-08T16:39:19.448Z,3.40
2019-02-08T16:41:49.238Z,3.77
2019-02-08T16:44:18.898Z,3.30
2019-02-08T16:46:48.699Z,4.62
2019-02-08T16:49:18.450Z,3.92
2019-02-08T16:51:48.205Z,3.98
2019-02-08T16:54:17.877Z,3.55
2019-02-08T16:56:47.615Z,3.83
2019-02-08T16:59:17.285Z,4.10
2019-02-08T17:01:46.951Z,3.42
2019-02-08T17:04:16.658Z,3.52
2019-02-08T17:06:46.315Z,3.60
2019-02-08T17:09:15.963Z,4.03
2019-02-08T17:11:45.689Z,4.67
2019-02-08T17:14:15.398Z,3.33
2019-02-08T17:16:45.116Z,3.50
2019-02-08T17:19:14.901Z,4.45
2019-02-08T17:21:44.561Z,3.95
2019-02-08T17:24:14.252Z,4.47
2019-02-08T17:26:43.947Z,3.98
2019-02-08T17:29:13.611Z,3.42
2019-02-08T17:31:43.318Z,3.42
2019-02-08T17:34:13.132Z,4.37
2019-02-08T17:36:42.885Z,4.53
2019-02-08T17:39:12.578Z,4.70
2019-02-08T17:41:42.284Z,3.80
2019-02-08T17:44:12.022Z,9.03
2019-02-08T17:46:41.739Z,4.05
2019-02-08T17:49:11.484Z,4.25
2019-02-08T17:51:41.141Z,4.03
2019-02-08T17:54:10.888Z,5.03
2019-02-08T17:56:40.634Z,4.30
2019-02-08T17:59:10.332Z,5.87
2019-02-08T18:01:40.015Z,4.47
2019-02-08T18:04:09.748Z,4.10
2019-02-08T18:06:39.411Z,4.90
2019-02-08T18:09:10.460Z,5.42
2019-02-08T18:11:40.226Z,5.45
2019-02-08T18:14:09.988Z,4.28
2019-02-08T18:16:39.627Z,4.30
2019-02-08T18:19:09.341Z,5.15
2019-02-08T18:21:39.065Z,5.78
2019-02-08T18:24:08.801Z,4.78
2019-02-08T18:26:38.494Z,4.42
2019-02-08T18:29:08.266Z,4.17
2019-02-08T18:31:38.004Z,4.47
2019-02-08T18:34:07.633Z,4.90
2019-02-08T18:36:37.333Z,5.05
2019-02-08T18:39:08.684Z,5.05
2019-02-08T18:41:38.356Z,5.15
2019-02-08T18:44:08.076Z,4.20
2019-02-08T18:46:37.742Z,4.03
2019-02-08T18:49:07.447Z,7.75
2019-02-08T18:51:37.182Z,4.03
2019-02-08T18:54:06.865Z,4.30
2019-02-08T18:56:36.605Z,4.35
2019-02-08T18:59:06.411Z,5.72
2019-02-08T19:01:36.085Z,4.87
2019-02-08T19:04:05.861Z,4.00
2019-02-08T19:06:35.498Z,5.00
2019-02-08T19:09:08.381Z,4.85
2019-02-08T19:11:38.037Z,4.67
2019-02-08T19:14:07.728Z,4.55
2019-02-08T19:16:37.375Z,4.10
2019-02-08T19:19:07.058Z,4.67
2019-02-08T19:21:36.804Z,4.80
2019-02-08T19:24:06.431Z,3.98
2019-02-08T19:26:36.072Z,4.87
2019-02-08T19:29:06.618Z,4.10
2019-02-08T19:31:36.242Z,4.80
2019-02-08T19:34:06.032Z,4.80
2019-02-08T19:36:35.698Z,4.10
2019-02-08T19:39:08.218Z,4.95
2019-02-08T19:41:37.922Z,5.10
2019-02-08T19:44:07.654Z,4.60
2019-02-08T19:46:37.344Z,3.90
2019-02-08T19:49:07.004Z,4.62
2019-02-08T19:51:36.666Z,5.12
2019-02-08T19:54:06.339Z,5.05
2019-02-08T19:56:35.965Z,4.22
2019-02-08T19:59:05.718Z,4.25
2019-02-08T20:01:35.449Z,5.92
2019-02-08T20:04:05.422Z,4.00
2019-02-08T20:06:35.132Z,4.47
2019-02-08T20:09:07.121Z,5.10
2019-02-08T20:11:36.802Z,6.17
2019-02-08T20:14:06.446Z,4.67
2019-02-08T20:16:36.119Z,4.90
2019-02-08T20:19:05.767Z,6.37
2019-02-08T20:21:35.439Z,4.65
2019-02-08T20:24:05.173Z,5.62
2019-02-08T20:26:34.847Z,5.45
2019-02-08T20:29:04.591Z,5.53
2019-02-08T20:31:34.403Z,6.35
2019-02-08T20:34:04.048Z,5.03
2019-02-08T20:36:33.703Z,5.58
2019-02-08T20:39:04.264Z,6.03
2019-02-08T20:41:33.920Z,5.80
2019-02-08T20:44:03.581Z,4.53
2019-02-08T20:46:33.277Z,5.22
2019-02-08T20:49:02.898Z,5.00
2019-02-08T20:51:32.638Z,5.12
2019-02-08T20:54:02.324Z,5.50
2019-02-08T20:56:31.980Z,5.05
2019-02-08T20:59:01.642Z,5.17
2019-02-08T21:01:31.327Z,5.47
2019-02-08T21:04:00.952Z,5.42
2019-02-08T21:06:30.624Z,5.40
2019-02-08T21:09:00.299Z,5.53
2019-02-08T21:11:29.936Z,4.60
2019-02-08T21:13:59.639Z,6.50
2019-02-08T21:16:29.291Z,6.12
2019-02-08T21:18:58.935Z,5.25
2019-02-08T21:21:28.637Z,6.03
2019-02-08T21:23:58.345Z,6.58
2019-02-08T21:26:28.011Z,4.30
2019-02-08T21:28:58.338Z,5.78
2019-02-08T21:31:28.012Z,5.35
2019-02-08T21:33:57.718Z,5.17
2019-02-08T21:36:27.370Z,6.95
2019-02-08T21:38:57.003Z,5.53
2019-02-08T21:41:26.705Z,5.15
2019-02-08T21:43:56.369Z,5.42
2019-02-08T21:46:26.095Z,5.65
2019-02-08T21:48:55.807Z,6.47
2019-02-08T21:51:25.435Z,5.80
2019-02-08T21:53:55.066Z,6.95
2019-02-08T21:56:24.856Z,6.30
2019-02-08T21:58:54.488Z,6.42
2019-02-08T22:01:24.142Z,5.55
2019-02-08T22:03:53.801Z,6.90
2019-02-08T22:06:23.462Z,6.72
2019-02-08T22:08:53.096Z,5.53
2019-02-08T22:11:22.764Z,6.83
2019-02-08T22:13:52.514Z,6.58
2019-02-08T22:16:22.198Z,6.72
2019-02-08T22:18:51.842Z,6.75
2019-02-08T22:21:21.553Z,6.83
2019-02-08T22:23:51.218Z,5.97
2019-02-08T22:26:20.867Z,6.75
2019-02-08T22:28:50.511Z,6.87
2019-02-08T22:31:20.187Z,6.83
2019-02-08T22:33:49.826Z,7.17
2019-02-08T22:36:19.517Z,7.72
2019-02-08T22:38:49.182Z,6.78
2019-02-08T22:41:18.823Z,7.20
2019-02-08T22:43:48.505Z,7.55
2019-02-08T22:46:18.137Z,7.55
2019-02-08T22:48:47.770Z,7.22
2019-02-08T22:51:17.442Z,8.85
2019-02-08T22:53:47.085Z,7.03
2019-02-08T22:56:16.712Z,7.72
2019-02-08T22:58:46.400Z,7.72
2019-02-08T23:01:30.087Z,7.10
2019-02-08T23:04:04.357Z,7.15
2019-02-08T23:06:33.998Z,8.68
2019-02-08T23:09:05.478Z,8.70
2019-02-08T23:11:35.384Z,7.80
2019-02-08T23:14:05.830Z,9.30
2019-02-08T23:16:35.483Z,8.33
2019-02-08T23:19:06.085Z,7.42
2019-02-08T23:21:36.128Z,8.25
2019-02-08T23:24:06.042Z,8.30
2019-02-08T23:26:35.710Z,7.90
2019-02-08T23:29:05.731Z,8.03
2019-02-08T23:31:35.354Z,8.83
2019-02-08T23:34:05.218Z,8.33
2019-02-08T23:36:34.837Z,7.35
2019-02-08T23:39:06.842Z,7.70
2019-02-08T23:41:36.487Z,6.95
2019-02-08T23:44:06.096Z,7.12
2019-02-08T23:46:35.744Z,7.87
2019-02-08T23:49:07.541Z,5.37
2019-02-08T23:51:37.266Z,8.35
2019-02-08T23:54:06.976Z,7.05
2019-02-08T23:56:36.628Z,7.60
2019-02-08T23:59:06.310Z,7.85
